Costa Serena — ICAZ — position and weather

sailwx.info

Track history (hours):
 
Tides and Currents Weather Stations Pressure Air Temp Water Temp Dewpoint Dewpoint Depression Visibility Wind Speed Wind Dir Waves Ship Positions

Costa Serena

Last reported at 2017-May-23 17:20 UTC. Time now 2017-May-25 10:34 UTC.
Position N 31°06' E 122°36'.

Length 290 m; draft 8.2 m.

Type: Ship. MMSI: 247187600.

Date/timePositionNaut miles runAvg speedWind from/ knotsBaromVisibWave heightAir tempDewpointWater temp
2017-May-23 17:20N 31°06' E 122°36'516.2
2017-May-23 17:00N 31°05' E 122°30'510.0
2017-May-23 16:30N 31°06' E 122°24'713.8
2017-May-23 15:58N 31°08' E 122°16'715.2
2017-May-23 15:31N 31°12' E 122°09'714.4
2017-May-23 15:01N 31°15' E 122°01'714.5
2017-May-23 14:31N 31°16' E 121°53'1312.6
2017-May-23 13:30N 31°21' E 121°39'611.5
2017-May-23 13:00N 31°24' E 121°33'3 5.3
2017-May-23 12:29N 31°25' E 121°30'0 0.0
2017-May-23 11:59N 31°25' E 121°30'0 0.0
2017-May-23 11:28N 31°25' E 121°30'0 0.0
2017-May-23 11:00N 31°25' E 121°30'0 0.0
2017-May-23 10:30N 31°25' E 121°30'0 0.0
2017-May-23 10:00N 31°25' E 121°30'0 0.0
2017-May-23 09:30N 31°25' E 121°30'0 0.0
2017-May-23 09:00N 31°25' E 121°30'0 0.0
2017-May-23 08:30N 31°25' E 121°30'0 0.0
2017-May-23 08:00N 31°25' E 121°30'0 0.0
2017-May-23 07:30N 31°25' E 121°30'0 0.0
2017-May-23 07:00N 31°25' E 121°30'0 0.0
2017-May-23 06:30N 31°25' E 121°30'0 0.0
2017-May-23 06:00N 31°25' E 121°30'0 0.0
2017-May-23 05:30N 31°25' E 121°30'0 0.0
2017-May-23 05:00N 31°25' E 121°30'0 0.0
2017-May-23 04:30N 31°25' E 121°30'0 0.0
2017-May-23 04:00N 31°25' E 121°30'0 0.0
2017-May-23 03:30N 31°25' E 121°30'0 0.0
2017-May-23 03:00N 31°25' E 121°30'0 0.0
2017-May-23 02:30N 31°25' E 121°30'0 0.0
2017-May-23 02:00N 31°25' E 121°30'0 0.0
2017-May-23 01:30N 31°25' E 121°30'0 0.0
2017-May-23 01:00N 31°25' E 121°30'0 0.0
2017-May-23 00:30N 31°25' E 121°30'0 0.0
2017-May-23 00:00N 31°25' E 121°30'0 0.0
2017-May-22 23:30N 31°25' E 121°30'0 0.0
2017-May-22 23:00N 31°25' E 121°30'2 3.6
2017-May-22 22:30N 31°24' E 121°32'5 9.5
2017-May-22 22:00N 31°22' E 121°37'611.6
2017-May-22 21:30N 31°19' E 121°43'713.8
2017-May-22 21:00N 31°17' E 121°51'713.6
2017-May-22 20:30N 31°15' E 121°58'713.1
2017-May-22 20:00N 31°14' E 122°06'713.2
2017-May-22 19:30N 31°10' E 122°12'713.8
2017-May-22 19:01N 31°06' E 122°19'712.9
2017-May-22 18:30N 31°06' E 122°27'611.8
2017-May-22 18:00N 31°07' E 122°33'  
2017-May-19 17:06N 31°05' E 123°55'518.3
2017-May-19 16:50N 31°05' E 123°49'618.2
2017-May-19 16:30N 31°05' E 123°42'918.3
2017-May-19 16:00N 31°06' E 123°31'1017.8
2017-May-19 15:26N 31°06' E 123°19'818.2
2017-May-19 15:00N 31°06' E 123°10'2117.5
2017-May-19 13:50N 31°06' E 122°46'616.5
2017-May-19 13:29N 31°06' E 122°39'916.8
2017-May-19 12:58N 31°06' E 122°29'510.0
2017-May-19 12:31N 31°05' E 122°24'714.7
2017-May-19 12:00N 31°08' E 122°16'714.7
2017-May-19 11:30N 31°12' E 122°09'714.3
2017-May-19 11:00N 31°15' E 122°01'714.7
2017-May-19 10:30N 31°16' E 121°53'714.6
2017-May-19 10:00N 31°19' E 121°45'3 6.9
2017-May-19 09:30N 31°20' E 121°41'2 4.1
2017-May-19 09:00N 31°21' E 121°39'510.3
2017-May-19 08:30N 31°24' E 121°34'3 6.2
2017-May-19 08:00N 31°25' E 121°30'0 0.0
2017-May-19 07:30N 31°25' E 121°30'0 0.0
2017-May-19 06:52N 31°25' E 121°30'0 0.0
2017-May-19 06:22N 31°25' E 121°30'0 0.0
2017-May-19 05:58N 31°25' E 121°30'0 0.0
2017-May-19 05:28N 31°25' E 121°30'0 0.0
2017-May-19 05:00N 31°25' E 121°30'0 0.0
2017-May-19 04:27N 31°25' E 121°30'0 0.0
2017-May-19 04:00N 31°25' E 121°30'0 0.0
2017-May-19 03:30N 31°25' E 121°30'0 0.0
2017-May-19 02:57N 31°25' E 121°30'0 0.0
2017-May-19 02:23N 31°25' E 121°30'0 0.0
2017-May-19 01:59N 31°25' E 121°30'0 0.0
2017-May-19 01:29N 31°25' E 121°30'0 0.0
2017-May-19 00:59N 31°25' E 121°30'0 0.0
2017-May-19 00:28N 31°25' E 121°30'0 0.0
2017-May-18 23:55N 31°25' E 121°30'0 0.0
2017-May-18 23:30N 31°25' E 121°30'2 4.1
2017-May-18 23:00N 31°24' E 121°33'611.4
2017-May-18 22:30N 31°22' E 121°39'611.1
2017-May-18 22:00N 31°19' E 121°44'510.1
2017-May-18 21:31N 31°17' E 121°50'510.5
2017-May-18 21:00N 31°16' E 121°56'510.2
2017-May-18 20:31N 31°15' E 122°02'5 9.7
2017-May-18 20:00N 31°13' E 122°07'611.5
2017-May-18 19:30N 31°10' E 122°12'713.0
2017-May-18 19:00N 31°06' E 122°19'611.4
2017-May-18 18:26N 31°07' E 122°26'510.5
2017-May-18 18:00N 31°07' E 122°32'613.0
2017-May-18 17:30N 31°07' E 122°39'714.0
2017-May-18 16:59N 31°06' E 122°48'613.4
2017-May-18 16:30N 31°07' E 122°55'713.3
2017-May-18 15:59N 31°05' E 123°03'613.0
2017-May-18 15:30N 31°03' E 123°10'713.0
2017-May-18 15:00N 31°00' E 123°17'1611.6
2017-May-18 13:37N 30°47' E 123°28'212.8
2017-May-18 13:26N 30°45' E 123°29'512.6
2017-May-18 13:00N 30°41' E 123°34'712.5
2017-May-18 12:26N 30°36' E 123°39'512.4
2017-May-18 12:00N 30°33' E 123°44'612.1
2017-May-18 11:30N 30°28' E 123°48'1012.2
2017-May-18 10:43N 30°20' E 123°55'312.2
2017-May-18 10:30N 30°18' E 123°57'612.2
2017-May-18 10:00N 30°14' E 124°02'  
2017-May-16 00:03N 30°58' E 123°22'219.3
2017-May-15 23:57N 30°59' E 123°20'918.9
2017-May-15 23:27N 31°02' E 123°09'818.8
2017-May-15 23:00N 31°05' E 122°60'1019.5
2017-May-15 22:30N 31°06' E 122°49'918.2
2017-May-15 22:00N 31°06' E 122°38'817.1
2017-May-15 21:30N 31°06' E 122°28'5 9.3
2017-May-15 21:00N 31°06' E 122°23'714.4
2017-May-15 20:30N 31°08' E 122°15'714.7
2017-May-15 20:00N 31°13' E 122°08'714.5
2017-May-15 19:30N 31°15' E 121°59'713.5
2017-May-15 19:00N 31°16' E 121°52'612.4
2017-May-15 18:31N 31°19' E 121°45'5 9.9
2017-May-15 18:00N 31°21' E 121°40'511.1
2017-May-15 17:31N 31°23' E 121°34'3 7.0
2017-May-15 17:00N 31°25' E 121°30'0 0.0
2017-May-15 16:31N 31°25' E 121°30'0 0.0
2017-May-15 16:00N 31°25' E 121°30'0 0.0
2017-May-15 15:30N 31°25' E 121°30'0 0.0
2017-May-15 14:57N 31°25' E 121°30'0 0.0
2017-May-15 13:57N 31°25' E 121°30'0 0.0
2017-May-15 13:26N 31°25' E 121°30'0 0.0
2017-May-15 12:59N 31°25' E 121°30'0 0.0
2017-May-15 12:29N 31°25' E 121°30'0 0.0
2017-May-15 11:59N 31°25' E 121°30'0 0.0
2017-May-15 11:29N 31°25' E 121°30'0 0.0
2017-May-15 10:58N 31°25' E 121°30'0 0.0
2017-May-15 10:28N 31°25' E 121°30'0 0.0
2017-May-15 09:55N 31°25' E 121°30'0 0.0
2017-May-15 09:28N 31°25' E 121°30'0 0.0
2017-May-15 09:01N 31°25' E 121°30'0 0.9
2017-May-15 08:31N 31°25' E 121°31'4 8.4
2017-May-15 08:00N 31°23' E 121°35'510.7
2017-May-15 07:30N 31°20' E 121°41'510.1
2017-May-15 07:01N 31°18' E 121°46'5 9.1
2017-May-15 06:31N 31°16' E 121°51'5 9.8
2017-May-15 06:01N 31°15' E 121°57'5 9.6
2017-May-15 05:31N 31°14' E 122°02'510.7
2017-May-15 05:01N 31°13' E 122°08'  
Track history (hours):
 
Tides and Currents Weather Stations Pressure Air Temp Water Temp Dewpoint Dewpoint Depression Visibility Wind Speed Wind Dir Waves Ship Positions

Costa Serena

Last reported at 2017-May-23 17:20 UTC. Time now 2017-May-25 10:34 UTC.
Position N 31°06' E 122°36'.

Length 290 m; draft 8.2 m.

Type: Ship. MMSI: 247187600.

Date/timePositionNaut miles runAvg speedWind from/ knotsBaromVisibWave heightAir tempDewpointWater temp
2017-May-23 17:20N 31°06' E 122°36'516.2
2017-May-23 17:00N 31°05' E 122°30'510.0
2017-May-23 16:30N 31°06' E 122°24'713.8
2017-May-23 15:58N 31°08' E 122°16'715.2
2017-May-23 15:31N 31°12' E 122°09'714.4
2017-May-23 15:01N 31°15' E 122°01'714.5
2017-May-23 14:31N 31°16' E 121°53'1312.6
2017-May-23 13:30N 31°21' E 121°39'611.5
2017-May-23 13:00N 31°24' E 121°33'3 5.3
2017-May-23 12:29N 31°25' E 121°30'0 0.0
2017-May-23 11:59N 31°25' E 121°30'0 0.0
2017-May-23 11:28N 31°25' E 121°30'0 0.0
2017-May-23 11:00N 31°25' E 121°30'0 0.0
2017-May-23 10:30N 31°25' E 121°30'0 0.0
2017-May-23 10:00N 31°25' E 121°30'0 0.0
2017-May-23 09:30N 31°25' E 121°30'0 0.0
2017-May-23 09:00N 31°25' E 121°30'0 0.0
2017-May-23 08:30N 31°25' E 121°30'0 0.0
2017-May-23 08:00N 31°25' E 121°30'0 0.0
2017-May-23 07:30N 31°25' E 121°30'0 0.0
2017-May-23 07:00N 31°25' E 121°30'0 0.0
2017-May-23 06:30N 31°25' E 121°30'0 0.0
2017-May-23 06:00N 31°25' E 121°30'0 0.0
2017-May-23 05:30N 31°25' E 121°30'0 0.0
2017-May-23 05:00N 31°25' E 121°30'0 0.0
2017-May-23 04:30N 31°25' E 121°30'0 0.0
2017-May-23 04:00N 31°25' E 121°30'0 0.0
2017-May-23 03:30N 31°25' E 121°30'0 0.0
2017-May-23 03:00N 31°25' E 121°30'0 0.0
2017-May-23 02:30N 31°25' E 121°30'0 0.0
2017-May-23 02:00N 31°25' E 121°30'0 0.0
2017-May-23 01:30N 31°25' E 121°30'0 0.0
2017-May-23 01:00N 31°25' E 121°30'0 0.0
2017-May-23 00:30N 31°25' E 121°30'0 0.0
2017-May-23 00:00N 31°25' E 121°30'0 0.0
2017-May-22 23:30N 31°25' E 121°30'0 0.0
2017-May-22 23:00N 31°25' E 121°30'2 3.6
2017-May-22 22:30N 31°24' E 121°32'5 9.5
2017-May-22 22:00N 31°22' E 121°37'611.6
2017-May-22 21:30N 31°19' E 121°43'713.8
2017-May-22 21:00N 31°17' E 121°51'713.6
2017-May-22 20:30N 31°15' E 121°58'713.1
2017-May-22 20:00N 31°14' E 122°06'713.2
2017-May-22 19:30N 31°10' E 122°12'713.8
2017-May-22 19:01N 31°06' E 122°19'712.9
2017-May-22 18:30N 31°06' E 122°27'611.8
2017-May-22 18:00N 31°07' E 122°33'  
2017-May-19 17:06N 31°05' E 123°55'518.3
2017-May-19 16:50N 31°05' E 123°49'618.2
2017-May-19 16:30N 31°05' E 123°42'918.3
2017-May-19 16:00N 31°06' E 123°31'1017.8
2017-May-19 15:26N 31°06' E 123°19'818.2
2017-May-19 15:00N 31°06' E 123°10'2117.5
2017-May-19 13:50N 31°06' E 122°46'616.5
2017-May-19 13:29N 31°06' E 122°39'916.8
2017-May-19 12:58N 31°06' E 122°29'510.0
2017-May-19 12:31N 31°05' E 122°24'714.7
2017-May-19 12:00N 31°08' E 122°16'714.7
2017-May-19 11:30N 31°12' E 122°09'714.3
2017-May-19 11:00N 31°15' E 122°01'714.7
2017-May-19 10:30N 31°16' E 121°53'714.6
2017-May-19 10:00N 31°19' E 121°45'3 6.9
2017-May-19 09:30N 31°20' E 121°41'2 4.1
2017-May-19 09:00N 31°21' E 121°39'510.3
2017-May-19 08:30N 31°24' E 121°34'3 6.2
2017-May-19 08:00N 31°25' E 121°30'0 0.0
2017-May-19 07:30N 31°25' E 121°30'0 0.0
2017-May-19 06:52N 31°25' E 121°30'0 0.0
2017-May-19 06:22N 31°25' E 121°30'0 0.0
2017-May-19 05:58N 31°25' E 121°30'0 0.0
2017-May-19 05:28N 31°25' E 121°30'0 0.0
2017-May-19 05:00N 31°25' E 121°30'0 0.0
2017-May-19 04:27N 31°25' E 121°30'0 0.0
2017-May-19 04:00N 31°25' E 121°30'0 0.0
2017-May-19 03:30N 31°25' E 121°30'0 0.0
2017-May-19 02:57N 31°25' E 121°30'0 0.0
2017-May-19 02:23N 31°25' E 121°30'0 0.0
2017-May-19 01:59N 31°25' E 121°30'0 0.0
2017-May-19 01:29N 31°25' E 121°30'0 0.0
2017-May-19 00:59N 31°25' E 121°30'0 0.0
2017-May-19 00:28N 31°25' E 121°30'0 0.0
2017-May-18 23:55N 31°25' E 121°30'0 0.0
2017-May-18 23:30N 31°25' E 121°30'2 4.1
2017-May-18 23:00N 31°24' E 121°33'611.4
2017-May-18 22:30N 31°22' E 121°39'611.1
2017-May-18 22:00N 31°19' E 121°44'510.1
2017-May-18 21:31N 31°17' E 121°50'510.5
2017-May-18 21:00N 31°16' E 121°56'510.2
2017-May-18 20:31N 31°15' E 122°02'5 9.7
2017-May-18 20:00N 31°13' E 122°07'611.5
2017-May-18 19:30N 31°10' E 122°12'713.0
2017-May-18 19:00N 31°06' E 122°19'611.4
2017-May-18 18:26N 31°07' E 122°26'510.5
2017-May-18 18:00N 31°07' E 122°32'613.0
2017-May-18 17:30N 31°07' E 122°39'714.0
2017-May-18 16:59N 31°06' E 122°48'613.4
2017-May-18 16:30N 31°07' E 122°55'713.3
2017-May-18 15:59N 31°05' E 123°03'613.0
2017-May-18 15:30N 31°03' E 123°10'713.0
2017-May-18 15:00N 31°00' E 123°17'1611.6
2017-May-18 13:37N 30°47' E 123°28'212.8
2017-May-18 13:26N 30°45' E 123°29'512.6
2017-May-18 13:00N 30°41' E 123°34'712.5
2017-May-18 12:26N 30°36' E 123°39'512.4
2017-May-18 12:00N 30°33' E 123°44'612.1
2017-May-18 11:30N 30°28' E 123°48'1012.2
2017-May-18 10:43N 30°20' E 123°55'312.2
2017-May-18 10:30N 30°18' E 123°57'612.2
2017-May-18 10:00N 30°14' E 124°02'  
2017-May-16 00:03N 30°58' E 123°22'219.3
2017-May-15 23:57N 30°59' E 123°20'918.9
2017-May-15 23:27N 31°02' E 123°09'818.8
2017-May-15 23:00N 31°05' E 122°60'1019.5
2017-May-15 22:30N 31°06' E 122°49'918.2
2017-May-15 22:00N 31°06' E 122°38'817.1
2017-May-15 21:30N 31°06' E 122°28'5 9.3
2017-May-15 21:00N 31°06' E 122°23'714.4
2017-May-15 20:30N 31°08' E 122°15'714.7
2017-May-15 20:00N 31°13' E 122°08'714.5
2017-May-15 19:30N 31°15' E 121°59'713.5
2017-May-15 19:00N 31°16' E 121°52'612.4
2017-May-15 18:31N 31°19' E 121°45'5 9.9
2017-May-15 18:00N 31°21' E 121°40'511.1
2017-May-15 17:31N 31°23' E 121°34'3 7.0
2017-May-15 17:00N 31°25' E 121°30'0 0.0
2017-May-15 16:31N 31°25' E 121°30'0 0.0
2017-May-15 16:00N 31°25' E 121°30'0 0.0
2017-May-15 15:30N 31°25' E 121°30'0 0.0
2017-May-15 14:57N 31°25' E 121°30'0 0.0
2017-May-15 13:57N 31°25' E 121°30'0 0.0
2017-May-15 13:26N 31°25' E 121°30'0 0.0
2017-May-15 12:59N 31°25' E 121°30'0 0.0
2017-May-15 12:29N 31°25' E 121°30'0 0.0
2017-May-15 11:59N 31°25' E 121°30'0 0.0
2017-May-15 11:29N 31°25' E 121°30'0 0.0
2017-May-15 10:58N 31°25' E 121°30'0 0.0
2017-May-15 10:28N 31°25' E 121°30'0 0.0
2017-May-15 09:55N 31°25' E 121°30'0 0.0
2017-May-15 09:28N 31°25' E 121°30'0 0.0
2017-May-15 09:01N 31°25' E 121°30'0 0.9
2017-May-15 08:31N 31°25' E 121°31'4 8.4
2017-May-15 08:00N 31°23' E 121°35'510.7
2017-May-15 07:30N 31°20' E 121°41'510.1
2017-May-15 07:01N 31°18' E 121°46'5 9.1
2017-May-15 06:31N 31°16' E 121°51'5 9.8
2017-May-15 06:01N 31°15' E 121°57'5 9.6
2017-May-15 05:31N 31°14' E 122°02'510.7
2017-May-15 05:01N 31°13' E 122°08'  

Dump ship's entire track history